Aérodrome :
LOGIN :

S'inscrire | Disclaimer

   EN    FR    IT 

 










Légende :    VFR   VFR Marginal   IFR   IFR Intensif   IFR Très Intensif
Visi : 
Plafond : 
>= 8 km
>= 3000ft
5 à 8 km
1000 à 3000 ft
1500m à 5 km
500 à 1000 ft
800 à 1500m
200 à 500 ft
< 800m
< 200 ft
Symboles :   Orages  Brouillard  Fortes neiges  Fortes précipitations  Vent > 20 kt
SIGMETs :   Divers  Orages  Givrage  Turbulence  Onde Orograph.  Cendres Volcan.






- Altitude de l'aérodrome : 200 ft


EBBL - Klein Brogel AB

DERNIER METAR :
  • 161055Z 23013KT 9999 FEW033 SCT060 20/13 Q1011 BLU BLU

METARs EXPIRÉS :
  • 161025Z 24016KT 9999 FEW033 SCT060 19/12 Q1011 BLU BLU
  • 160955Z 21014KT 9999 FEW031 SCT060 22/13 Q1010 BLU BLU
  • 160925Z 22010KT 9999 SCT028 21/14 Q1010 BLU BLU
  • 160855Z 22013KT 9999 SCT026 19/13 Q1010 BLU BLU
  • 160850Z 22014KT 9999 SCT026 20/14 Q1010 BLU BLU
  • 160825Z 21013KT 9999 SCT023 19/14 Q1010 WHT WHT BECMG BLU
  • 160811Z 21012KT 9999 SCT023 20/14 Q1010 WHT WHT BECMG BLU
  • 160725Z 22011KT 9999 FEW024 20/13 Q1010 BLU BLU
  • 160655Z 22013KT 9999 FEW020 19/14 Q1011 BLU BLU TEMPO WHT
  • 160625Z 22011KT 9999 FEW017 18/14 Q1010 BLU BLU

TAF TAF EBBL
Valide du 16 à 10h jusqu'au 16 à 19h UTC


160841Z 1610/1619 22012G25KT 9999 BKN025
TEMPO 1611/1618 6000 -SHRA
TEMPO 1612/1616 3000 SHRA BKN020TCU
PROB30
TEMPO 1611/1614 23020G30KT 1500 TSRA SCT012 BKN020CB



MET'MAP, la Météo Aéronautique d'un coup d'oeil ! - Copyright ORBIFLY Décembre 2007 - Disclaimer

ORBIFLY MET'MAP TEAM :

Programmation & Développement : Alexandra Zaïnal
Sur une idée originale de : Baudouin d'Aumeries
Soutien technique & logistique : Manuel Goepfert
Assistance : Marc-Olivier Méhu




SOURCES & CREDITS :

   NOAA